createdAt,value
2018-12-21T00:00:12.100Z,3.27
2018-12-21T00:02:42.531Z,3.20
2018-12-21T00:05:14.220Z,3.57
2018-12-21T00:07:44.500Z,3.13
2018-12-21T00:10:13.643Z,3.47
2018-12-21T00:12:42.594Z,3.57
2018-12-21T00:15:10.992Z,3.50
2018-12-21T00:17:39.534Z,3.60
2018-12-21T00:20:08.575Z,4.17
2018-12-21T00:22:37.014Z,3.13
2018-12-21T00:25:06.371Z,2.97
2018-12-21T00:27:35.424Z,3.20
2018-12-21T00:30:07.400Z,2.90
2018-12-21T00:32:41.452Z,3.00
2018-12-21T00:35:15.339Z,3.03
2018-12-21T00:37:49.680Z,3.47
2018-12-21T00:40:25.623Z,2.93
2018-12-21T00:42:57.595Z,3.40
2018-12-21T00:45:28.740Z,2.97
2018-12-21T00:47:57.150Z,3.10
2018-12-21T00:50:26.301Z,2.90
2018-12-21T00:52:55.767Z,3.23
2018-12-21T00:55:24.397Z,3.63
2018-12-21T00:57:52.856Z,3.10
2018-12-21T01:00:23.651Z,3.20
2018-12-21T01:02:51.816Z,3.33
2018-12-21T01:05:20.474Z,3.00
2018-12-21T01:07:48.802Z,3.70
2018-12-21T01:10:17.328Z,3.90
2018-12-21T01:12:47.315Z,3.20
2018-12-21T01:15:16.258Z,3.17
2018-12-21T01:17:45.306Z,3.20
2018-12-21T01:20:15.502Z,2.90
2018-12-21T01:22:45.387Z,3.10
2018-12-21T01:25:14.331Z,3.00
2018-12-21T01:27:42.750Z,3.20
2018-12-21T01:30:10.888Z,2.87
2018-12-21T01:32:40.906Z,2.80
2018-12-21T01:35:10.417Z,3.30
2018-12-21T01:37:38.931Z,3.43
2018-12-21T01:40:07.572Z,3.23
2018-12-21T01:42:36.613Z,2.70
2018-12-21T01:45:05.877Z,2.90
2018-12-21T01:47:35.449Z,3.83
2018-12-21T01:50:05.828Z,3.53
2018-12-21T01:52:34.484Z,2.90
2018-12-21T01:55:02.908Z,2.57
2018-12-21T01:57:31.749Z,3.03
2018-12-21T01:59:59.828Z,2.93
2018-12-21T02:02:28.457Z,3.00
2018-12-21T02:04:57.433Z,3.03
2018-12-21T02:07:26.366Z,2.70
2018-12-21T02:09:55.626Z,3.17
2018-12-21T02:12:24.673Z,3.20
2018-12-21T02:14:55.391Z,4.03
2018-12-21T02:17:24.649Z,3.07
2018-12-21T02:19:55.367Z,3.17
2018-12-21T02:22:24.513Z,3.13
2018-12-21T02:24:53.572Z,2.70
2018-12-21T02:27:22.095Z,3.27
2018-12-21T02:29:52.093Z,2.40
2018-12-21T02:32:20.507Z,2.60
2018-12-21T02:34:48.757Z,2.67
2018-12-21T02:37:17.108Z,2.90
2018-12-21T02:39:46.392Z,2.93
2018-12-21T02:42:15.649Z,2.40
2018-12-21T02:44:44.056Z,2.67
2018-12-21T02:47:12.491Z,3.00
2018-12-21T02:49:40.916Z,3.03
2018-12-21T02:52:09.223Z,2.50
2018-12-21T02:54:38.187Z,2.90
2018-12-21T02:57:07.620Z,2.50
2018-12-21T02:59:37.309Z,3.17
2018-12-21T03:02:05.550Z,2.90
2018-12-21T03:04:36.217Z,2.80
2018-12-21T03:07:04.444Z,2.87
2018-12-21T03:09:32.522Z,2.50
2018-12-21T03:12:04.019Z,2.77
2018-12-21T03:14:33.166Z,3.43
2018-12-21T03:17:02.840Z,3.83
2018-12-21T03:19:31.586Z,2.90
2018-12-21T03:22:00.992Z,2.73
2018-12-21T03:24:29.329Z,2.67
2018-12-21T03:26:59.554Z,2.67
2018-12-21T03:29:28.080Z,2.53
2018-12-21T03:31:57.151Z,2.40
2018-12-21T03:34:25.973Z,2.57
2018-12-21T03:36:54.797Z,2.47
2018-12-21T03:39:23.410Z,2.40
2018-12-21T03:41:52.587Z,2.70
2018-12-21T03:44:21.427Z,2.90
2018-12-21T03:46:50.996Z,2.53
2018-12-21T03:49:19.387Z,2.40
2018-12-21T03:51:48.048Z,2.57
2018-12-21T03:54:18.253Z,2.70
2018-12-21T03:56:46.573Z,2.40
2018-12-21T03:59:15.603Z,2.50
2018-12-21T04:01:44.868Z,2.27
2018-12-21T04:04:13.496Z,2.40
2018-12-21T04:06:42.232Z,2.37
2018-12-21T04:09:10.694Z,2.60
2018-12-21T04:11:40.317Z,3.03
2018-12-21T04:14:09.791Z,2.40
2018-12-21T04:16:38.856Z,3.67
2018-12-21T04:19:07.789Z,2.50
2018-12-21T04:21:36.204Z,2.60
2018-12-21T04:24:04.843Z,2.80
2018-12-21T04:26:33.353Z,2.80
2018-12-21T04:29:02.224Z,2.67
2018-12-21T04:31:32.582Z,4.70
2018-12-21T04:34:01.129Z,2.60
2018-12-21T04:36:29.633Z,3.50
2018-12-21T04:38:57.868Z,2.90
2018-12-21T04:41:26.603Z,3.17
2018-12-21T04:43:56.396Z,2.40
2018-12-21T04:46:24.645Z,2.40
2018-12-21T04:48:53.641Z,2.13
2018-12-21T04:51:22.274Z,2.53
2018-12-21T04:53:50.693Z,2.33
2018-12-21T04:56:20.576Z,2.17
2018-12-21T04:58:48.773Z,2.53
2018-12-21T05:01:17.404Z,2.40
2018-12-21T05:03:46.355Z,2.20
2018-12-21T05:06:17.394Z,2.70
2018-12-21T05:08:47.286Z,2.77
2018-12-21T05:11:17.787Z,2.63
2018-12-21T05:13:46.319Z,2.80
2018-12-21T05:16:15.057Z,2.27
2018-12-21T05:18:43.782Z,3.07
2018-12-21T05:21:12.933Z,2.73
2018-12-21T05:23:41.233Z,2.77
2018-12-21T05:26:09.987Z,3.20
2018-12-21T05:28:38.287Z,2.73
2018-12-21T05:31:06.622Z,2.80
2018-12-21T05:33:34.847Z,2.57
2018-12-21T05:36:05.124Z,3.03
2018-12-21T05:38:34.452Z,2.77
2018-12-21T05:41:03.236Z,3.03
2018-12-21T05:43:33.360Z,2.93
2018-12-21T05:46:02.417Z,3.00
2018-12-21T05:48:30.597Z,2.80
2018-12-21T05:50:59.204Z,3.00
2018-12-21T05:53:27.604Z,3.07
2018-12-21T05:55:56.144Z,3.40
2018-12-21T05:58:25.205Z,3.90
2018-12-21T06:00:53.730Z,3.83
2018-12-21T06:03:21.982Z,3.47
2018-12-21T06:05:50.468Z,3.37
2018-12-21T06:08:18.592Z,3.77
2018-12-21T06:10:47.832Z,3.47
2018-12-21T06:13:16.776Z,3.87
2018-12-21T06:15:46.242Z,3.67
2018-12-21T06:18:14.757Z,3.40
2018-12-21T06:20:43.193Z,3.50
2018-12-21T06:23:12.028Z,2.70
2018-12-21T06:25:40.540Z,3.13
2018-12-21T06:28:09.081Z,3.20
2018-12-21T06:30:37.702Z,4.23
2018-12-21T06:33:07.286Z,2.87
2018-12-21T06:35:35.701Z,3.40
2018-12-21T06:38:04.742Z,2.67
2018-12-21T06:40:32.933Z,2.60
2018-12-21T06:43:01.963Z,2.50
2018-12-21T06:45:32.589Z,2.50
2018-12-21T06:48:02.392Z,2.13
2018-12-21T06:50:31.440Z,2.20
2018-12-21T06:53:00.079Z,2.87
2018-12-21T06:55:28.502Z,2.20
2018-12-21T06:57:57.339Z,1.93
2018-12-21T07:00:26.493Z,2.40
2018-12-21T07:02:55.437Z,2.00
2018-12-21T07:05:24.380Z,1.80
2018-12-21T07:07:53.356Z,2.00
2018-12-21T07:10:22.058Z,2.13
2018-12-21T07:12:51.940Z,2.00
2018-12-21T07:15:20.542Z,2.10
2018-12-21T07:17:49.715Z,2.20
2018-12-21T07:20:18.247Z,2.07
2018-12-21T07:22:47.136Z,2.00
2018-12-21T07:25:16.240Z,2.20
2018-12-21T07:27:45.286Z,2.13
2018-12-21T07:30:13.917Z,2.23
2018-12-21T07:32:42.963Z,2.20
2018-12-21T07:35:11.819Z,2.00
2018-12-21T07:37:40.328Z,2.20
2018-12-21T07:40:09.454Z,2.00
2018-12-21T07:42:38.528Z,2.27
2018-12-21T07:45:08.925Z,2.03
2018-12-21T07:47:37.557Z,2.10
2018-12-21T07:50:06.541Z,2.10
2018-12-21T07:52:35.023Z,2.00
2018-12-21T07:55:05.543Z,2.20
2018-12-21T07:57:35.297Z,2.00
2018-12-21T08:00:05.356Z,1.93
2018-12-21T08:02:33.940Z,1.93
2018-12-21T08:05:02.560Z,2.30
2018-12-21T08:07:32.026Z,4.20
2018-12-21T08:10:01.606Z,2.47
2018-12-21T08:12:30.223Z,2.80
2018-12-21T08:15:01.134Z,2.33
2018-12-21T08:17:33.553Z,2.03
2018-12-21T08:20:02.079Z,2.20
2018-12-21T08:22:30.501Z,1.83
2018-12-21T08:24:59.137Z,2.03
2018-12-21T08:27:27.683Z,2.00
2018-12-21T08:29:56.065Z,2.13
2018-12-21T08:32:24.498Z,1.80
2018-12-21T08:34:53.023Z,2.10
2018-12-21T08:37:21.050Z,1.70
2018-12-21T08:39:50.701Z,2.00
2018-12-21T08:42:20.193Z,1.60
2018-12-21T08:44:49.528Z,1.90
2018-12-21T08:47:18.576Z,1.87
2018-12-21T08:49:47.089Z,1.97
2018-12-21T08:52:15.418Z,1.83
2018-12-21T08:54:43.606Z,2.00
2018-12-21T08:57:11.737Z,2.00
2018-12-21T08:59:40.368Z,2.27
2018-12-21T09:02:08.789Z,2.17
2018-12-21T09:04:36.953Z,1.90
2018-12-21T09:07:05.592Z,2.07
2018-12-21T09:09:34.470Z,2.10
2018-12-21T09:12:03.521Z,2.17
2018-12-21T09:14:32.568Z,1.93
2018-12-21T09:17:00.665Z,1.90
2018-12-21T09:19:30.348Z,1.90
2018-12-21T09:21:59.485Z,1.80
2018-12-21T09:24:28.338Z,1.90
2018-12-21T09:26:56.768Z,1.50
2018-12-21T09:29:26.874Z,1.60
2018-12-21T09:31:55.378Z,1.90
2018-12-21T09:34:24.732Z,2.07
2018-12-21T09:36:53.264Z,1.93
2018-12-21T09:39:21.895Z,1.87
2018-12-21T09:41:50.064Z,1.60
2018-12-21T09:44:19.573Z,1.80
2018-12-21T09:46:48.098Z,1.87
2018-12-21T09:49:16.573Z,1.80
2018-12-21T09:51:45.431Z,2.10
2018-12-21T09:54:14.316Z,2.40
2018-12-21T09:56:42.726Z,2.10
2018-12-21T09:59:10.789Z,2.00
2018-12-21T10:01:38.882Z,2.47
2018-12-21T10:04:08.830Z,3.40
2018-12-21T10:06:37.244Z,2.53
2018-12-21T10:09:07.428Z,4.13
2018-12-21T10:11:37.218Z,2.50
2018-12-21T10:14:05.848Z,2.57
2018-12-21T10:16:35.192Z,2.67
2018-12-21T10:19:03.841Z,2.83
2018-12-21T10:21:33.840Z,3.07
2018-12-21T10:24:02.242Z,12.07
2018-12-21T10:26:30.887Z,3.03
2018-12-21T10:28:59.983Z,3.27
2018-12-21T10:31:28.444Z,3.10
2018-12-21T10:33:58.762Z,3.70
2018-12-21T10:36:27.008Z,3.67
2018-12-21T10:38:56.136Z,3.37
2018-12-21T10:41:26.451Z,3.70
2018-12-21T10:43:56.404Z,3.50
2018-12-21T10:46:27.233Z,3.80
2018-12-21T10:48:57.430Z,4.17
2018-12-21T10:51:26.271Z,4.90
2018-12-21T10:53:54.775Z,5.60
2018-12-21T10:56:22.855Z,4.60
2018-12-21T10:58:51.216Z,6.43
2018-12-21T11:01:20.363Z,7.17
2018-12-21T11:03:48.619Z,7.13
2018-12-21T11:06:17.213Z,7.60
2018-12-21T11:08:45.608Z,5.80
2018-12-21T11:11:13.842Z,5.03
2018-12-21T11:13:43.437Z,3.77
2018-12-21T11:16:11.952Z,3.67
2018-12-21T11:18:42.345Z,3.27
2018-12-21T11:21:11.291Z,2.30
2018-12-21T11:23:41.110Z,2.40
2018-12-21T11:26:10.569Z,2.30
2018-12-21T11:28:38.804Z,2.30
2018-12-21T11:31:08.000Z,2.20
2018-12-21T11:33:36.937Z,2.23
2018-12-21T11:36:06.028Z,2.00
2018-12-21T11:38:34.108Z,2.00
2018-12-21T11:41:02.720Z,2.10
2018-12-21T11:43:30.793Z,2.10
2018-12-21T11:45:59.040Z,2.30
2018-12-21T11:48:28.094Z,1.80
2018-12-21T11:50:57.670Z,1.90
2018-12-21T11:53:26.197Z,1.80
2018-12-21T11:55:54.616Z,1.93
2018-12-21T11:58:23.665Z,2.27
2018-12-21T12:00:51.776Z,1.90
2018-12-21T12:03:20.356Z,1.77
2018-12-21T12:05:51.225Z,1.90
2018-12-21T12:08:19.740Z,1.90
2018-12-21T12:10:49.008Z,1.70
2018-12-21T12:13:18.707Z,2.50
2018-12-21T12:15:47.730Z,1.63
2018-12-21T12:18:15.926Z,1.40
2018-12-21T12:20:45.096Z,1.43
2018-12-21T12:23:13.412Z,1.50
2018-12-21T12:25:41.537Z,1.70
2018-12-21T12:28:10.572Z,2.13
2018-12-21T12:30:39.357Z,1.90
2018-12-21T12:33:07.915Z,1.80
2018-12-21T12:35:36.980Z,1.90
2018-12-21T12:38:05.743Z,1.60
2018-12-21T12:40:34.134Z,1.80
2018-12-21T12:43:03.179Z,1.90
2018-12-21T12:45:31.792Z,2.57
2018-12-21T12:48:00.444Z,1.73
2018-12-21T12:50:28.688Z,1.50
2018-12-21T12:52:58.020Z,1.40
2018-12-21T12:55:26.377Z,1.30
2018-12-21T12:57:55.271Z,1.30
2018-12-21T13:00:24.846Z,1.40
2018-12-21T13:02:53.802Z,1.20
2018-12-21T13:05:22.942Z,1.30
2018-12-21T13:07:51.262Z,1.23
2018-12-21T13:10:19.760Z,1.20
2018-12-21T13:12:50.508Z,1.30
2018-12-21T13:15:19.547Z,6.23
2018-12-21T13:17:48.707Z,1.40
2018-12-21T13:20:17.335Z,1.30
2018-12-21T13:22:45.734Z,1.20
2018-12-21T13:25:14.361Z,1.40
2018-12-21T13:27:42.806Z,1.63
2018-12-21T13:30:13.585Z,1.40
2018-12-21T13:32:42.679Z,1.37
2018-12-21T13:35:12.148Z,1.40
2018-12-21T13:37:41.333Z,1.47
2018-12-21T13:40:10.134Z,1.40
2018-12-21T13:42:38.663Z,2.00
2018-12-21T13:45:08.444Z,1.50
2018-12-21T13:47:36.636Z,1.60
2018-12-21T13:50:06.639Z,1.50
2018-12-21T13:52:34.955Z,1.50
2018-12-21T13:55:04.735Z,1.90
2018-12-21T13:57:35.258Z,2.03
2018-12-21T14:00:05.654Z,2.27
2018-12-21T14:02:34.481Z,1.93
2018-12-21T14:05:04.809Z,2.27
2018-12-21T14:07:33.414Z,1.90
2018-12-21T14:10:01.856Z,2.00
2018-12-21T14:12:31.516Z,2.33
2018-12-21T14:15:00.564Z,2.07
2018-12-21T14:17:29.090Z,2.33
2018-12-21T14:19:58.128Z,2.10
2018-12-21T14:22:27.789Z,2.30
2018-12-21T14:24:56.288Z,2.93
2018-12-21T14:27:25.984Z,2.47
2018-12-21T14:29:54.747Z,3.13
2018-12-21T14:32:24.212Z,3.23
2018-12-21T14:34:52.739Z,3.00
2018-12-21T14:37:21.568Z,3.17
2018-12-21T14:39:50.201Z,2.93
2018-12-21T14:42:18.731Z,3.50
2018-12-21T14:44:47.155Z,3.33
2018-12-21T14:47:15.576Z,3.33
2018-12-21T14:49:46.190Z,3.73
2018-12-21T14:52:15.656Z,3.93
2018-12-21T14:54:44.397Z,3.73
2018-12-21T14:57:12.893Z,3.50
2018-12-21T14:59:41.343Z,4.70
2018-12-21T15:02:10.273Z,4.33
2018-12-21T15:04:38.909Z,4.70
2018-12-21T15:07:09.353Z,4.17
2018-12-21T15:09:39.305Z,4.37
2018-12-21T15:12:08.142Z,3.70
2018-12-21T15:14:38.665Z,4.60
2018-12-21T15:17:07.809Z,4.80
2018-12-21T15:19:36.090Z,3.90
2018-12-21T15:22:06.422Z,3.73
2018-12-21T15:24:35.169Z,4.73
2018-12-21T15:27:05.041Z,4.67
2018-12-21T15:29:34.187Z,4.43
2018-12-21T15:32:03.767Z,5.40
2018-12-21T15:34:32.395Z,5.00
2018-12-21T15:37:02.688Z,8.70
2018-12-21T15:39:30.956Z,5.67
2018-12-21T15:42:00.059Z,5.83
2018-12-21T15:44:28.376Z,5.97
2018-12-21T15:46:57.528Z,5.07
2018-12-21T15:49:26.678Z,5.10
2018-12-21T15:51:55.300Z,5.77
2018-12-21T15:54:23.621Z,5.47
2018-12-21T15:56:52.467Z,5.57
2018-12-21T15:59:22.246Z,6.13
2018-12-21T16:01:50.929Z,5.77
2018-12-21T16:04:20.452Z,5.07
2018-12-21T16:06:50.447Z,6.90
2018-12-21T16:09:18.860Z,9.87
2018-12-21T16:11:47.274Z,9.83
2018-12-21T16:14:15.595Z,7.97
2018-12-21T16:16:44.721Z,7.47
2018-12-21T16:19:13.904Z,9.43
2018-12-21T16:21:43.679Z,6.70
2018-12-21T16:24:12.306Z,9.37
2018-12-21T16:26:41.811Z,6.87
2018-12-21T16:29:11.220Z,7.40
2018-12-21T16:31:40.181Z,5.77
2018-12-21T16:34:08.753Z,7.13
2018-12-21T16:36:36.960Z,5.60
2018-12-21T16:39:06.487Z,6.37
2018-12-21T16:41:35.226Z,6.70
2018-12-21T16:44:03.853Z,7.60
2018-12-21T16:46:32.599Z,8.90
2018-12-21T16:49:01.090Z,10.23
2018-12-21T16:51:29.729Z,8.20
2018-12-21T16:53:58.581Z,9.43
2018-12-21T16:56:27.288Z,9.00
2018-12-21T16:58:55.946Z,7.47
2018-12-21T17:01:25.088Z,10.10
2018-12-21T17:03:54.034Z,7.50
2018-12-21T17:06:22.991Z,7.40
2018-12-21T17:08:52.967Z,7.57
2018-12-21T17:11:21.412Z,7.07
2018-12-21T17:13:50.444Z,8.17
2018-12-21T17:16:19.594Z,9.33
2018-12-21T17:18:47.693Z,8.50
2018-12-21T17:21:17.058Z,7.13
2018-12-21T17:23:45.593Z,6.50
2018-12-21T17:26:21.258Z,7.37
2018-12-21T17:28:44.522Z,7.27
2018-12-21T17:31:13.485Z,7.73
2018-12-21T17:33:42.519Z,6.23
2018-12-21T17:36:11.861Z,6.53
2018-12-21T17:38:39.979Z,6.97
2018-12-21T17:41:09.237Z,6.90
2018-12-21T17:43:37.663Z,6.57
2018-12-21T17:46:06.811Z,6.97
2018-12-21T17:48:35.338Z,7.27
2018-12-21T17:51:05.093Z,7.33
2018-12-21T17:53:34.158Z,6.87
2018-12-21T17:56:02.617Z,6.80
2018-12-21T17:58:31.529Z,6.20
2018-12-21T18:01:01.308Z,6.17
2018-12-21T18:03:30.250Z,5.10
2018-12-21T18:05:59.584Z,6.17
2018-12-21T18:08:28.034Z,6.37
2018-12-21T18:10:56.723Z,6.07
2018-12-21T18:13:25.716Z,6.30
2018-12-21T18:15:54.969Z,6.37
2018-12-21T18:18:25.345Z,6.73
2018-12-21T18:20:54.525Z,6.13
2018-12-21T18:23:24.403Z,6.43
2018-12-21T18:25:54.705Z,5.97
2018-12-21T18:28:24.909Z,6.53
2018-12-21T18:30:53.734Z,6.37
2018-12-21T18:33:22.578Z,6.27
2018-12-21T18:35:51.632Z,5.77
2018-12-21T18:38:20.571Z,5.80
2018-12-21T18:40:49.211Z,6.93
2018-12-21T18:43:17.809Z,6.03
2018-12-21T18:45:46.600Z,6.33
2018-12-21T18:48:15.095Z,7.30
2018-12-21T18:50:43.809Z,7.63
2018-12-21T18:53:12.112Z,6.70
2018-12-21T18:55:40.882Z,6.80
2018-12-21T18:58:09.941Z,6.53
2018-12-21T19:00:38.400Z,7.03
2018-12-21T19:03:06.716Z,6.00
2018-12-21T19:05:35.516Z,6.97
2018-12-21T19:08:03.615Z,5.97
2018-12-21T19:10:32.652Z,6.13
2018-12-21T19:13:01.716Z,6.87
2018-12-21T19:15:30.757Z,6.67
2018-12-21T19:17:59.394Z,6.70
2018-12-21T19:20:28.437Z,6.40
2018-12-21T19:22:58.734Z,6.83
2018-12-21T19:25:27.801Z,7.23
2018-12-21T19:27:56.309Z,6.13
2018-12-21T19:30:25.203Z,6.07
2018-12-21T19:32:53.568Z,6.10
2018-12-21T19:35:27.447Z,6.40
2018-12-21T19:37:53.656Z,6.43
2018-12-21T19:40:22.071Z,6.10
2018-12-21T19:42:50.607Z,6.33
2018-12-21T19:45:18.748Z,6.67
2018-12-21T19:47:49.319Z,5.70
2018-12-21T19:50:17.576Z,5.93
2018-12-21T19:52:46.161Z,7.47
2018-12-21T19:55:17.116Z,5.63
2018-12-21T19:57:47.704Z,6.87
2018-12-21T20:00:16.216Z,5.57
2018-12-21T20:02:44.649Z,5.37
2018-12-21T20:05:13.702Z,5.77
2018-12-21T20:07:42.534Z,5.87
2018-12-21T20:10:11.564Z,5.73
2018-12-21T20:12:40.527Z,6.10
2018-12-21T20:15:10.412Z,6.93
2018-12-21T20:17:40.004Z,5.90
2018-12-21T20:20:11.118Z,6.63
2018-12-21T20:22:39.540Z,6.77
2018-12-21T20:25:09.523Z,6.73
2018-12-21T20:27:38.860Z,6.23
2018-12-21T20:30:09.523Z,6.40
2018-12-21T20:32:40.540Z,7.50
2018-12-21T20:35:09.585Z,6.43
2018-12-21T20:37:39.890Z,6.20
2018-12-21T20:40:10.396Z,6.73
2018-12-21T20:42:38.806Z,6.33
2018-12-21T20:45:08.811Z,6.63
2018-12-21T20:47:39.078Z,7.37
2018-12-21T20:50:10.040Z,6.20
2018-12-21T20:52:38.544Z,6.47
2018-12-21T20:55:09.591Z,6.60
2018-12-21T20:57:39.671Z,6.50
2018-12-21T21:00:13.643Z,6.60
2018-12-21T21:02:43.420Z,6.47
2018-12-21T21:05:12.466Z,6.97
2018-12-21T21:07:40.751Z,6.00
2018-12-21T21:10:10.979Z,6.10
2018-12-21T21:12:40.027Z,7.53
2018-12-21T21:15:10.121Z,6.83
2018-12-21T21:17:39.388Z,6.83
2018-12-21T21:20:11.744Z,7.20
2018-12-21T21:22:40.403Z,6.53
2018-12-21T21:25:08.903Z,7.27
2018-12-21T21:27:37.818Z,7.83
2018-12-21T21:30:10.986Z,6.70
2018-12-21T21:32:39.753Z,7.87
2018-12-21T21:35:08.250Z,8.03
2018-12-21T21:37:36.771Z,7.37
2018-12-21T21:40:10.000Z,7.30
2018-12-21T21:42:39.560Z,6.63
2018-12-21T21:45:09.555Z,7.53
2018-12-21T21:47:38.185Z,7.43
2018-12-21T21:50:09.531Z,7.30
2018-12-21T21:52:38.572Z,7.57
2018-12-21T21:55:07.802Z,7.13
2018-12-21T21:57:39.562Z,7.23
2018-12-21T22:00:08.763Z,7.07
2018-12-21T22:02:37.793Z,7.53
2018-12-21T22:05:06.172Z,7.03
2018-12-21T22:07:34.855Z,7.60
2018-12-21T22:10:04.733Z,7.70
2018-12-21T22:12:33.157Z,7.30
2018-12-21T22:15:01.661Z,9.03
2018-12-21T22:17:31.875Z,7.77
2018-12-21T22:20:00.718Z,7.37
2018-12-21T22:22:29.661Z,7.63
2018-12-21T22:24:58.706Z,7.47
2018-12-21T22:27:26.802Z,6.90
2018-12-21T22:29:56.074Z,8.40
2018-12-21T22:32:25.649Z,7.27
2018-12-21T22:34:54.166Z,8.40
2018-12-21T22:37:25.210Z,7.37
2018-12-21T22:39:56.761Z,8.27
2018-12-21T22:42:26.784Z,6.83
2018-12-21T22:44:55.788Z,8.30
2018-12-21T22:47:26.665Z,7.43
2018-12-21T22:49:55.693Z,8.50
2018-12-21T22:52:24.707Z,7.63
2018-12-21T22:54:53.029Z,7.17
2018-12-21T22:57:24.034Z,7.70
2018-12-21T22:59:53.011Z,7.17
2018-12-21T23:02:21.972Z,8.23
2018-12-21T23:04:50.364Z,8.30
2018-12-21T23:07:18.785Z,7.53
2018-12-21T23:09:46.817Z,7.43
2018-12-21T23:12:16.045Z,8.20
2018-12-21T23:14:44.466Z,7.43
2018-12-21T23:17:12.998Z,8.20
2018-12-21T23:19:41.813Z,7.80
2018-12-21T23:22:11.841Z,7.77
2018-12-21T23:24:40.866Z,8.10
2018-12-21T23:27:09.810Z,7.77
2018-12-21T23:29:38.648Z,8.10
2018-12-21T23:32:06.856Z,8.30
2018-12-21T23:34:35.481Z,7.93
2018-12-21T23:37:04.637Z,8.47
2018-12-21T23:39:33.506Z,7.43
2018-12-21T23:42:02.800Z,8.73
2018-12-21T23:44:31.892Z,8.40
2018-12-21T23:47:00.416Z,7.87
2018-12-21T23:49:29.041Z,8.43
2018-12-21T23:51:58.523Z,8.00
2018-12-21T23:54:27.033Z,8.27
2018-12-21T23:56:55.462Z,8.13
2018-12-21T23:59:23.947Z,8.30
